Time;durP1;ratioP1;P1;durP2;ratioP2;P2;SDS_P1;SDS_P2;PMS_P1;PMS_P2;Temp;Humidity;BMP_temperature;BMP_pressure;BME280_temperature;BME280_humidity;BME280_pressure;Samples;Min_cycle;Max_cycle;Signal;HPM_P1;HPM_P2
2022/12/27 00:02:29;;;;;;;4.65;1.55;;;;;;;4.24;100.00;100645.38;12189186;19;20030;-82
2022/12/27 00:06:32;;;;;;;5.18;1.83;;;;;;;4.37;100.00;100648.25;12205487;19;20034;-79
2022/12/27 00:10:34;;;;;;;4.15;1.58;;;;;;;4.52;100.00;100654.59;12207926;19;21499;-81
2022/12/27 00:14:36;;;;;;;5.83;1.80;;;;;;;4.67;100.00;100660.03;12186079;19;20891;-81
2022/12/27 00:18:39;;;;;;;7.15;1.30;;;;;;;4.73;100.00;100659.25;12209539;19;20241;-81
2022/12/27 00:22:41;;;;;;;5.18;2.10;;;;;;;4.78;100.00;100675.06;12206999;19;20007;-80
2022/12/27 00:26:42;;;;;;;5.30;1.50;;;;;;;4.76;100.00;100672.53;12181877;19;20010;-80
2022/12/27 00:30:44;;;;;;;2.45;1.52;;;;;;;4.75;100.00;100678.16;12207193;19;20034;-81
2022/12/27 00:34:45;;;;;;;3.20;1.27;;;;;;;4.70;100.00;100680.63;12202216;19;20007;-81
2022/12/27 00:38:48;;;;;;;4.35;1.35;;;;;;;4.62;100.00;100681.59;12175107;19;20535;-80
2022/12/27 00:42:49;;;;;;;4.60;1.23;;;;;;;4.48;100.00;100679.72;12200467;19;20031;-81
2022/12/27 00:46:51;;;;;;;2.90;1.20;;;;;;;4.34;100.00;100681.38;12194420;19;20007;-82
2022/12/27 00:51:05;;;;;;;2.55;0.85;;;;;;;4.21;100.00;100690.22;12177170;19;20091;-80
2022/12/27 00:55:07;;;;;;;2.65;0.90;;;;;;;4.13;100.00;100692.19;12196987;19;20015;-81
2022/12/27 00:59:10;;;;;;;5.43;1.10;;;;;;;4.04;100.00;100691.44;12197624;19;20035;-81
2022/12/27 01:03:12;;;;;;;3.78;1.08;;;;;;;3.96;100.00;100697.00;12174822;19;20022;-81
2022/12/27 01:07:13;;;;;;;3.33;1.08;;;;;;;3.89;100.00;100694.13;12196498;19;20507;-80
2022/12/27 01:11:17;;;;;;;4.13;0.90;;;;;;;3.83;100.00;100692.16;12194407;19;20006;-80
2022/12/27 01:15:19;;;;;;;1.73;0.82;;;;;;;3.75;100.00;100708.56;12171449;19;20014;-80
2022/12/27 01:19:23;;;;;;;3.70;1.08;;;;;;;3.67;100.00;100709.50;12190878;19;20031;-80
2022/12/27 01:23:26;;;;;;;2.95;1.08;;;;;;;3.64;100.00;100707.97;12168923;19;20006;-81
2022/12/27 01:27:28;;;;;;;2.70;1.00;;;;;;;3.62;100.00;100717.38;12194870;19;20003;-79
2022/12/27 01:31:29;;;;;;;6.10;1.02;;;;;;;3.58;100.00;100719.63;12191184;19;20544;-80
2022/12/27 01:35:31;;;;;;;3.17;0.90;;;;;;;3.56;100.00;100723.53;12177122;19;20006;-81
2022/12/27 01:39:33;;;;;;;0.95;0.60;;;;;;;3.53;100.00;100724.75;12198048;19;20011;-82
2022/12/27 01:43:38;;;;;;;1.55;0.90;;;;;;;3.49;100.00;100734.34;12200793;19;20010;-80
2022/12/27 01:47:49;;;;;;;4.47;0.77;;;;;;;3.46;100.00;100742.88;12182286;19;20002;-82
2022/12/27 01:51:50;;;;;;;3.35;0.90;;;;;;;3.40;100.00;100735.41;12257641;19;20010;-79
2022/12/27 01:55:58;;;;;;;1.77;1.30;;;;;;;3.39;100.00;100750.94;12254433;19;19999;-79
2022/12/27 02:00:00;;;;;;;3.78;0.80;;;;;;;3.38;100.00;100754.66;12182931;19;20006;-81
2022/12/27 02:04:09;;;;;;;2.30;0.80;;;;;;;3.35;100.00;100762.34;12199746;19;20031;-80
2022/12/27 02:08:42;;;;;;;1.00;0.55;;;;;;;3.33;100.00;100750.78;12198078;19;20018;-82
2022/12/27 02:12:44;;;;;;;1.38;0.68;;;;;;;3.30;100.00;100751.13;12184863;19;20483;-81
2022/12/27 02:16:45;;;;;;;2.17;0.70;;;;;;;3.29;100.00;100744.00;12253607;19;20027;-79
2022/12/27 02:21:14;;;;;;;2.23;0.70;;;;;;;3.31;100.00;100750.13;12208927;19;20017;-81
2022/12/27 02:25:34;;;;;;;3.92;0.90;;;;;;;3.31;100.00;100750.13;12196769;19;20559;-82
2022/12/27 02:29:56;;;;;;;2.17;0.73;;;;;;;3.29;100.00;100749.44;12177557;19;20046;-82
2022/12/27 02:34:00;;;;;;;5.23;0.87;;;;;;;3.29;100.00;100754.91;12199049;19;20014;-80
2022/12/27 02:38:14;;;;;;;2.42;0.70;;;;;;;3.30;100.00;100752.00;12196666;19;20013;-80
2022/12/27 03:05:17;;;;;;;3.53;1.05;;;;;;;3.36;100.00;100766.75;12192082;19;20019;-81
2022/12/27 03:19:01;;;;;;;1.85;0.88;;;;;;;3.41;100.00;100769.81;12101375;19;2004551;-79
2022/12/27 03:27:30;;;;;;;4.95;1.00;;;;;;;3.40;100.00;100768.13;12180672;19;20002;-81
2022/12/27 03:45:13;;;;;;;4.30;1.23;;;;;;;3.31;100.00;100761.03;12174708;19;20006;-81
2022/12/27 03:49:29;;;;;;;1.65;0.82;;;;;;;3.28;100.00;100759.50;12196148;19;20018;-81
2022/12/27 03:53:37;;;;;;;7.88;1.40;;;;;;;3.30;100.00;100778.38;12173126;19;20006;-81
2022/12/27 03:57:39;;;;;;;4.90;1.23;;;;;;;3.29;100.00;100784.84;12201098;19;20112;-80
2022/12/27 04:01:41;;;;;;;2.27;1.00;;;;;;;3.27;100.00;100789.63;12240202;19;19995;-79
2022/12/27 04:05:43;;;;;;;3.47;1.52;;;;;;;3.26;100.00;100780.63;12187182;19;19999;-80
2022/12/27 04:35:46;;;;;;;5.38;1.85;;;;;;;3.46;100.00;100789.19;12176580;19;20739;-81
2022/12/27 04:57:10;;;;;;;4.40;2.38;;;;;;;3.45;100.00;100792.09;12172739;19;20015;-82
2022/12/27 05:05:36;;;;;;;4.97;1.40;;;;;;;3.44;100.00;100785.78;12173258;19;20496;-79
2022/12/27 05:14:00;;;;;;;4.82;1.77;;;;;;;3.42;100.00;100804.19;12192345;19;20492;-81
2022/12/27 05:18:02;;;;;;;10.82;3.35;;;;;;;3.44;100.00;100818.50;12171453;19;20019;-81
2022/12/27 05:26:27;;;;;;;7.85;1.35;;;;;;;3.48;100.00;100821.69;12188899;19;20042;-81
2022/12/27 05:30:31;;;;;;;5.47;1.48;;;;;;;3.46;100.00;100813.72;12193998;19;20011;-81
2022/12/27 05:34:33;;;;;;;4.55;1.75;;;;;;;3.46;100.00;100826.50;12190137;19;20615;-80
2022/12/27 05:38:35;;;;;;;9.38;1.92;;;;;;;3.47;100.00;100823.56;12166119;19;20679;-81
2022/12/27 05:42:36;;;;;;;5.18;1.98;;;;;;;3.47;100.00;100818.13;12185752;19;20010;-82
2022/12/27 05:46:38;;;;;;;8.10;1.80;;;;;;;3.49;100.00;100828.88;12189564;19;20027;-82
2022/12/27 05:50:39;;;;;;;5.45;1.40;;;;;;;3.46;100.00;100827.34;12176304;19;20035;-81
2022/12/27 05:54:45;;;;;;;6.22;1.50;;;;;;;3.47;100.00;100828.19;12192911;19;20007;-81
2022/12/27 05:58:47;;;;;;;5.30;1.80;;;;;;;3.42;100.00;100831.44;12197935;19;20011;-81
2022/12/27 06:02:49;;;;;;;5.97;1.58;;;;;;;3.41;100.00;100840.66;12164966;19;20037;-81
2022/12/27 06:06:51;;;;;;;2.65;1.05;;;;;;;3.45;100.00;100842.00;12194574;19;20010;-82
2022/12/27 06:11:01;;;;;;;5.03;1.60;;;;;;;3.47;100.00;100842.66;12191550;19;20035;-81
2022/12/27 06:15:04;;;;;;;5.45;1.60;;;;;;;3.52;100.00;100842.97;12169479;19;20007;-81
2022/12/27 06:19:06;;;;;;;6.85;1.40;;;;;;;3.52;100.00;100836.69;12191888;19;20030;-82
2022/12/27 06:23:08;;;;;;;6.70;1.60;;;;;;;3.53;100.00;100841.94;12188903;19;20010;-81
2022/12/27 06:27:09;;;;;;;4.88;1.75;;;;;;;3.52;100.00;100853.03;12167661;19;20006;-81
2022/12/27 06:31:12;;;;;;;5.57;1.55;;;;;;;3.51;100.00;100848.59;12184968;19;20039;-80
2022/12/27 06:35:16;;;;;;;10.95;2.63;;;;;;;3.52;100.00;100859.31;12188496;19;20451;-79
2022/12/27 06:39:18;;;;;;;7.72;1.63;;;;;;;3.53;100.00;100873.78;12165762;19;20011;-81
2022/12/27 06:43:19;;;;;;;5.22;1.55;;;;;;;3.55;100.00;100874.47;12188205;19;20006;-80
2022/12/27 06:47:22;;;;;;;7.05;1.45;;;;;;;3.59;100.00;100881.25;12185539;19;20002;-83
2022/12/27 06:51:24;;;;;;;7.43;1.48;;;;;;;3.57;100.00;100870.56;12173247;19;20007;-80
2022/12/27 06:55:26;;;;;;;4.90;1.80;;;;;;;3.54;100.00;100873.63;12189595;19;20003;-82
2022/12/27 06:59:28;;;;;;;7.35;1.67;;;;;;;3.54;100.00;100879.09;12170918;19;20026;-81
2022/12/27 07:03:29;;;;;;;6.30;1.80;;;;;;;3.51;100.00;100876.72;12194739;19;20007;-80
2022/12/27 07:07:31;;;;;;;7.13;2.10;;;;;;;3.49;100.00;100878.75;12195813;19;20009;-82
2022/12/27 07:11:36;;;;;;;8.25;2.30;;;;;;;3.51;100.00;100890.34;12185785;19;20472;-81
2022/12/27 07:15:37;;;;;;;5.45;1.52;;;;;;;3.60;100.00;100894.72;12249744;19;19991;-80
2022/12/27 07:19:41;;;;;;;4.78;1.88;;;;;;;3.67;100.00;100903.03;12238693;19;20040;-82
2022/12/27 07:23:42;;;;;;;8.35;2.33;;;;;;;3.77;100.00;100908.25;12173553;19;20022;-80
2022/12/27 07:27:45;;;;;;;12.27;1.83;;;;;;;3.83;100.00;100915.72;12191202;19;20002;-81
2022/12/27 07:31:47;;;;;;;6.78;1.90;;;;;;;3.89;100.00;100915.00;12186176;19;20046;-79
2022/12/27 07:35:48;;;;;;;5.75;1.90;;;;;;;3.86;100.00;100915.34;12170819;19;20011;-81
2022/12/27 07:39:50;;;;;;;4.47;1.75;;;;;;;3.82;100.00;100922.22;12192032;19;20016;-82
2022/12/27 07:43:52;;;;;;;7.07;2.28;;;;;;;3.73;100.00;100928.72;12192345;19;20006;-81
2022/12/27 07:47:53;;;;;;;5.22;1.92;;;;;;;3.69;100.00;100933.69;12168357;19;20011;-81
2022/12/27 07:51:55;;;;;;;9.30;2.42;;;;;;;3.69;100.00;100949.19;12196846;19;20103;-81
2022/12/27 07:55:57;;;;;;;7.35;2.13;;;;;;;3.68;100.00;100950.22;12195442;19;20031;-81
2022/12/27 07:59:59;;;;;;;10.43;2.33;;;;;;;3.65;100.00;100949.53;12192211;19;20007;-79
2022/12/27 08:04:01;;;;;;;10.88;2.13;;;;;;;3.65;100.00;100949.53;12261374;19;20025;-79
2022/12/27 08:08:03;;;;;;;5.03;2.03;;;;;;;3.65;100.00;100954.97;12255202;19;20006;-80
2022/12/27 08:12:06;;;;;;;5.93;2.07;;;;;;;3.63;100.00;100958.94;12189661;19;20364;-81
2022/12/27 08:16:15;;;;;;;8.20;2.78;;;;;;;3.65;100.00;100956.88;12208659;19;20364;-82
2022/12/27 08:20:17;;;;;;;7.25;2.40;;;;;;;3.65;100.00;100952.25;12206316;19;20017;-81
2022/12/27 08:24:19;;;;;;;7.05;2.33;;;;;;;3.69;100.00;100941.00;12180685;19;20011;-82
2022/12/27 08:28:20;;;;;;;6.93;2.53;;;;;;;3.74;100.00;100950.34;12204922;19;20010;-82
2022/12/27 08:32:22;;;;;;;10.80;3.05;;;;;;;3.76;100.00;100955.63;12202459;19;20006;-81
2022/12/27 08:36:24;;;;;;;6.38;2.60;;;;;;;3.80;100.00;100937.88;12178511;19;20374;-81
2022/12/27 08:40:46;;;;;;;7.13;2.78;;;;;;;3.85;100.00;100946.38;12198807;19;20027;-80
2022/12/27 08:44:47;;;;;;;9.10;2.53;;;;;;;3.91;100.00;100942.94;12178976;19;20606;-82
2022/12/27 08:48:50;;;;;;;10.10;4.15;;;;;;;3.97;100.00;100947.69;12198446;19;20041;-81
2022/12/27 08:52:56;;;;;;;8.73;2.90;;;;;;;4.04;100.00;100945.94;12213854;19;20384;-81
2022/12/27 08:56:58;;;;;;;7.40;2.42;;;;;;;4.10;100.00;100950.69;12214029;19;19998;-81
2022/12/27 09:01:07;;;;;;;10.00;2.67;;;;;;;4.21;100.00;100957.59;12234510;19;20993;-78
2022/12/27 09:05:08;;;;;;;10.18;2.88;;;;;;;4.29;100.00;100963.00;12213942;19;20011;-79
2022/12/27 09:09:10;;;;;;;11.15;2.75;;;;;;;4.38;100.00;100961.06;12214015;19;20016;-78
2022/12/27 09:13:12;;;;;;;7.45;2.75;;;;;;;4.50;100.00;100973.25;12231285;19;20047;-79
2022/12/27 09:17:13;;;;;;;9.07;2.95;;;;;;;4.62;100.00;100972.84;12237392;19;20019;-79
2022/12/27 09:21:16;;;;;;;6.05;2.80;;;;;;;4.71;100.00;100974.47;12227893;19;20027;-81
2022/12/27 09:25:18;;;;;;;6.57;3.05;;;;;;;4.88;100.00;100981.50;12229371;19;20005;-80
2022/12/27 09:29:20;;;;;;;8.40;2.83;;;;;;;5.21;100.00;101003.91;12209103;19;20007;-81
2022/12/27 09:33:21;;;;;;;5.93;2.70;;;;;;;5.40;100.00;100999.78;12201633;19;20030;-79
2022/12/27 09:37:23;;;;;;;9.90;3.20;;;;;;;5.47;100.00;101003.47;12222711;19;20030;-82
2022/12/27 09:41:53;;;;;;;8.70;2.80;;;;;;;5.53;100.00;100998.28;12218718;19;20011;-79
2022/12/27 09:46:38;;;;;;;6.50;2.72;;;;;;;5.46;100.00;101001.75;12109103;19;2005379;-82
2022/12/27 09:50:50;;;;;;;8.45;3.17;;;;;;;5.54;100.00;101003.56;12186594;19;20570;-82
2022/12/27 09:55:03;;;;;;;9.67;2.97;;;;;;;5.63;100.00;100996.13;12207939;19;20564;-82
2022/12/27 09:59:41;;;;;;;7.78;3.78;;;;;;;5.67;100.00;100992.81;12205648;19;20371;-83
2022/12/27 10:03:44;;;;;;;8.93;3.53;;;;;;;5.64;100.00;101006.00;12184836;19;20041;-81
2022/12/27 10:08:10;;;;;;;9.27;3.80;;;;;;;5.66;100.00;101001.22;12205302;19;20027;-82
2022/12/27 10:12:33;;;;;;;11.10;3.60;;;;;;;5.71;100.00;101004.22;12182332;19;20511;-81
2022/12/27 10:16:55;;;;;;;;;;;;;;;5.81;100.00;101009.41;12197693;19;20706;-82
2022/12/27 10:21:00;;;;;;;9.90;3.70;;;;;;;5.87;100.00;101014.97;12177409;19;20340;-82
2022/12/27 10:25:05;;;;;;;8.60;3.30;;;;;;;5.86;100.00;101007.81;12205292;19;20010;-82
2022/12/27 10:29:19;;;;;;;9.68;3.70;;;;;;;5.95;100.00;100997.66;12205327;19;21435;-81
2022/12/27 10:33:27;;;;;;;12.35;3.75;;;;;;;5.88;100.00;101005.72;12184929;19;20007;-82
2022/12/27 10:37:29;;;;;;;9.27;3.47;;;;;;;5.98;100.00;101005.47;12203403;19;20014;-82
2022/12/27 10:42:21;;;;;;;8.55;4.40;;;;;;;6.09;100.00;100991.28;12181139;19;20006;-80
2022/12/27 10:46:28;;;;;;;11.50;3.92;;;;;;;6.20;100.00;100995.41;12201295;19;20078;-83
2022/12/27 10:50:34;;;;;;;10.88;3.60;;;;;;;6.34;100.00;100991.81;12182249;19;20333;-82
2022/12/27 10:54:55;;;;;;;9.88;4.78;;;;;;;6.57;100.00;100990.75;12202495;19;19994;-83
2022/12/27 10:59:15;;;;;;;8.93;3.47;;;;;;;6.72;100.00;100990.72;12197264;19;20022;-81
2022/12/27 11:03:18;;;;;;;7.43;3.80;;;;;;;6.69;100.00;100997.41;12175109;19;20398;-82
2022/12/27 11:07:20;;;;;;;12.13;4.20;;;;;;;6.69;100.00;100994.69;12199467;19;20011;-82
2022/12/27 11:11:24;;;;;;;7.93;4.33;;;;;;;6.77;100.00;100996.44;12208158;19;20515;-82
2022/12/27 11:15:28;;;;;;;8.45;4.38;;;;;;;6.93;100.00;101001.69;12172143;19;20002;-80
2022/12/27 11:19:30;;;;;;;13.45;4.25;;;;;;;7.05;100.00;100996.50;12197567;19;20034;-82
2022/12/27 11:23:42;;;;;;;12.60;4.35;;;;;;;7.13;100.00;100996.34;12175095;19;20007;-83
2022/12/27 11:27:50;;;;;;;9.02;4.18;;;;;;;7.11;100.00;100995.72;12201577;19;20023;-83
2022/12/27 11:31:53;;;;;;;10.73;3.83;;;;;;;7.26;100.00;100987.41;12200005;19;20026;-83
2022/12/27 11:35:58;;;;;;;7.47;4.15;;;;;;;7.34;100.00;100978.16;12188230;19;20665;-84
2022/12/27 11:40:25;;;;;;;10.52;4.00;;;;;;;7.33;100.00;100981.97;12182543;19;20038;-82
2022/12/27 11:44:32;;;;;;;9.60;3.75;;;;;;;7.35;100.00;100979.84;12205266;19;20480;-83
2022/12/27 11:48:43;;;;;;;8.43;3.33;;;;;;;7.48;100.00;100972.56;12186115;19;20006;-82
2022/12/27 11:53:22;;;;;;;11.93;3.83;;;;;;;7.54;100.00;100968.16;12207343;19;20002;-83
2022/12/27 11:57:41;;;;;;;9.43;4.13;;;;;;;7.62;100.00;100972.66;12190478;19;20106;-82
2022/12/27 12:02:20;;;;;;;9.88;3.80;;;;;;;7.66;98.60;100961.06;12205060;19;20031;-82
2022/12/27 12:06:41;;;;;;;8.05;3.05;;;;;;;7.63;98.30;100964.22;12197266;19;20011;-82
2022/12/27 12:11:08;;;;;;;7.43;4.25;;;;;;;8.18;98.26;100965.13;12214821;19;20034;-83
2022/12/27 12:15:22;;;;;;;9.93;3.33;;;;;;;8.39;96.99;100955.06;12197616;19;20010;-83
2022/12/27 12:19:53;;;;;;;11.20;3.92;;;;;;;8.20;97.03;100954.75;12259886;19;20023;-80
2022/12/27 12:24:16;;;;;;;5.78;3.10;;;;;;;8.52;98.07;100949.59;12226812;19;20520;-83
2022/12/27 12:28:59;;;;;;;9.65;3.35;;;;;;;8.79;93.32;100955.97;12213425;19;20010;-84
2022/12/27 12:33:04;;;;;;;10.10;3.20;;;;;;;8.78;92.16;100953.44;12189448;19;20002;-83
2022/12/27 12:37:20;;;;;;;10.10;4.40;;;;;;;8.58;92.45;100954.25;12211201;19;20006;-84
2022/12/27 12:41:31;;;;;;;9.63;3.03;;;;;;;8.41;93.57;100952.94;12215814;19;20467;-84
2022/12/27 12:45:57;;;;;;;7.55;2.80;;;;;;;8.40;93.78;100956.75;12187116;19;20002;-82
2022/12/27 12:50:20;;;;;;;10.65;3.38;;;;;;;8.29;94.36;100954.56;12209918;19;20632;-82
2022/12/27 12:54:28;;;;;;;7.18;2.88;;;;;;;8.27;94.78;100952.03;12189493;19;20006;-84
2022/12/27 12:58:42;;;;;;;12.32;3.40;;;;;;;8.26;94.56;100958.56;12215009;19;20420;-84
2022/12/27 13:03:21;;;;;;;6.13;3.03;;;;;;;8.27;94.53;100945.69;12188175;19;20002;-83
2022/12/27 13:07:39;;;;;;;6.28;2.80;;;;;;;8.61;94.51;100937.34;12207671;19;20010;-83
2022/12/27 13:11:55;;;;;;;7.43;3.03;;;;;;;8.55;92.99;100935.44;12188915;19;20405;-83
2022/12/27 13:16:29;;;;;;;9.32;2.92;;;;;;;8.32;92.85;100933.03;12211218;19;20030;-84
2022/12/27 13:20:43;;;;;;;10.73;2.88;;;;;;;8.35;94.29;100931.78;12181665;19;20038;-83
2022/12/27 13:24:57;;;;;;;8.52;2.60;;;;;;;8.45;93.59;100932.25;12199224;19;20017;-84
2022/12/27 13:29:24;;;;;;;12.90;3.58;;;;;;;8.39;92.94;100931.19;12207971;19;20014;-83
2022/12/27 13:33:43;;;;;;;6.60;2.55;;;;;;;8.24;92.12;100936.00;12183193;19;20042;-85
2022/12/27 13:38:16;;;;;;;8.45;3.10;;;;;;;8.34;91.34;100922.69;12206672;19;20003;-85
2022/12/27 13:42:37;;;;;;;7.28;2.60;;;;;;;8.28;90.81;100918.03;12185984;19;20002;-83
2022/12/27 13:47:06;;;;;;;7.65;2.65;;;;;;;8.16;91.93;100912.28;12210625;19;20054;-84
2022/12/27 13:51:20;;;;;;;7.43;2.30;;;;;;;7.91;92.56;100919.38;12185716;19;20006;-82
2022/12/27 13:55:44;;;;;;;8.93;2.65;;;;;;;7.66;93.76;100908.94;12204423;19;20057;-84
2022/12/27 13:59:45;;;;;;;;;;;;;;;7.52;93.86;100916.28;12189945;19;20002;-84
2022/12/27 14:04:01;;;;;;;12.07;2.35;;;;;;;7.49;94.68;100922.13;12212552;19;19915;-84
2022/12/27 14:08:14;;;;;;;4.75;2.17;;;;;;;7.39;95.07;100916.19;12211947;19;20038;-82
2022/12/27 14:12:57;;;;;;;6.22;2.10;;;;;;;7.31;96.56;100906.22;12237909;19;19991;-83
2022/12/27 14:17:20;;;;;;;2.95;1.60;;;;;;;7.28;97.63;100906.63;12253068;19;20006;-82
2022/12/27 14:21:27;;;;;;;6.63;2.60;;;;;;;7.33;97.84;100903.28;12185414;19;20022;-84
2022/12/27 14:26:12;;;;;;;8.77;2.13;;;;;;;7.27;98.70;100902.19;12206831;19;20019;-85
2022/12/27 14:30:29;;;;;;;10.00;2.25;;;;;;;7.12;99.74;100909.69;12182627;19;20428;-84
2022/12/27 14:35:08;;;;;;;6.55;2.80;;;;;;;7.00;100.00;100900.34;12204601;19;20508;-84
2022/12/27 14:39:31;;;;;;;7.38;2.67;;;;;;;6.84;100.00;100896.84;12182542;19;19999;-84
2022/12/27 14:44:10;;;;;;;7.65;2.13;;;;;;;6.80;100.00;100887.31;12204580;19;20027;-84
2022/12/27 14:48:49;;;;;;;8.90;1.83;;;;;;;6.72;100.00;100894.84;12182884;19;20006;-84
2022/12/27 14:53:18;;;;;;;13.13;1.90;;;;;;;6.67;100.00;100895.44;12207148;19;19999;-84
2022/12/27 14:57:47;;;;;;;8.70;1.60;;;;;;;6.56;100.00;100890.50;12185117;19;20007;-83
2022/12/27 15:02:07;;;;;;;4.40;1.15;;;;;;;6.40;100.00;100888.88;12212126;19;20023;-84
2022/12/27 15:06:21;;;;;;;5.22;1.30;;;;;;;6.35;100.00;100889.47;12187602;19;20010;-84
2022/12/27 15:10:45;;;;;;;7.47;1.73;;;;;;;6.20;100.00;100890.56;12218977;19;20605;-82
2022/12/27 15:14:56;;;;;;;4.35;1.60;;;;;;;6.07;100.00;100902.25;12195490;19;20006;-83
2022/12/27 15:19:04;;;;;;;6.03;1.95;;;;;;;5.94;100.00;100911.97;12218952;19;20078;-83
2022/12/27 15:23:28;;;;;;;7.05;1.95;;;;;;;5.85;100.00;100915.81;12215105;19;20007;-83
2022/12/27 15:27:37;;;;;;;5.07;1.90;;;;;;;5.69;100.00;100916.06;12192051;19;20007;-83
2022/12/27 15:32:17;;;;;;;8.20;2.40;;;;;;;5.63;100.00;100930.50;12219474;19;20010;-83
2022/12/27 15:36:34;;;;;;;8.68;2.45;;;;;;;5.53;100.00;100929.91;12192302;19;20007;-84
2022/12/27 15:40:42;;;;;;;12.93;2.42;;;;;;;5.41;100.00;100922.22;12207264;19;20099;-83
2022/12/27 15:45:08;;;;;;;5.35;1.98;;;;;;;5.33;100.00;100916.84;12189764;19;20030;-85
2022/12/27 15:49:25;;;;;;;7.15;2.00;;;;;;;5.30;100.00;100925.41;12211596;19;20010;-84
2022/12/27 15:53:55;;;;;;;8.93;3.13;;;;;;;5.24;100.00;100910.63;12209738;19;20031;-84
2022/12/27 15:58:08;;;;;;;6.20;3.08;;;;;;;5.17;100.00;100904.19;12197904;19;20015;-84
2022/12/27 16:02:28;;;;;;;4.90;2.50;;;;;;;5.11;100.00;100894.00;12213467;19;20011;-84
2022/12/27 16:06:32;;;;;;;5.50;2.83;;;;;;;5.05;100.00;100888.47;12190627;19;20018;-83
2022/12/27 16:10:40;;;;;;;6.78;3.45;;;;;;;5.07;100.00;100887.25;12212755;19;20011;-82
2022/12/27 16:14:42;;;;;;;7.20;2.10;;;;;;;5.21;100.00;100888.28;12190973;19;20039;-83
2022/12/27 16:19:17;;;;;;;7.73;3.53;;;;;;;5.36;100.00;100889.13;12208704;19;20006;-83
2022/12/27 16:23:22;;;;;;;7.15;2.92;;;;;;;5.55;100.00;100879.47;12206401;19;20034;-84
2022/12/27 16:27:31;;;;;;;11.20;4.60;;;;;;;5.68;100.00;100874.19;12185760;19;20006;-84
2022/12/27 16:31:35;;;;;;;8.13;3.25;;;;;;;5.77;100.00;100869.47;12205341;19;20019;-83
2022/12/27 16:36:22;;;;;;;8.40;3.88;;;;;;;5.82;100.00;100864.25;12184670;19;20015;-84
2022/12/27 16:40:43;;;;;;;11.23;4.50;;;;;;;5.85;100.00;100866.59;12070002;19;2741302;-84
2022/12/27 16:45:07;;;;;;;8.65;4.50;;;;;;;5.86;100.00;100849.16;12185034;19;20363;-83
2022/12/27 16:49:13;;;;;;;16.17;5.20;;;;;;;5.81;100.00;100853.50;12210130;19;20014;-84
2022/12/27 16:53:23;;;;;;;11.85;5.97;;;;;;;5.78;100.00;100854.75;12214677;19;20027;-84
2022/12/27 16:57:25;;;;;;;11.20;4.38;;;;;;;5.75;100.00;100851.53;12195478;19;20029;-83
2022/12/27 17:01:34;;;;;;;9.32;2.90;;;;;;;5.77;100.00;100863.13;12250367;19;20011;-83
2022/12/27 17:05:38;;;;;;;6.38;2.20;;;;;;;5.80;100.00;100869.06;12192104;19;20009;-83
2022/12/27 17:09:53;;;;;;;14.63;4.80;;;;;;;5.86;100.00;100865.56;12227757;19;20022;-83
2022/12/27 17:14:17;;;;;;;15.52;5.88;;;;;;;5.84;100.00;100862.16;12213573;19;20011;-84
2022/12/27 17:18:29;;;;;;;12.82;5.20;;;;;;;5.74;100.00;100864.38;12195008;19;20014;-84
2022/12/27 17:22:33;;;;;;;12.00;4.75;;;;;;;5.69;100.00;100854.00;12228874;19;20035;-83
2022/12/27 17:26:58;;;;;;;10.15;4.18;;;;;;;5.74;100.00;100850.72;12252093;19;20013;-82
2022/12/27 17:31:22;;;;;;;10.85;3.78;;;;;;;5.81;100.00;100848.88;12226834;19;20010;-84
2022/12/27 17:35:32;;;;;;;9.35;3.90;;;;;;;5.84;100.00;100843.03;12214970;19;20014;-83
2022/12/27 17:40:01;;;;;;;14.80;4.70;;;;;;;5.93;100.00;100838.31;12187287;19;20735;-84
2022/12/27 17:48:36;;;;;;;10.80;5.45;;;;;;;6.12;100.00;100821.22;12190797;19;20066;-84
2022/12/27 18:01:20;;;;;;;7.93;3.50;;;;;;;6.38;100.00;100814.31;12208372;19;20095;-83
2022/12/27 18:05:27;;;;;;;8.65;3.78;;;;;;;6.40;100.00;100806.75;12219055;19;20023;-84
2022/12/27 18:09:35;;;;;;;10.35;3.58;;;;;;;6.46;100.00;100799.63;12190443;19;20045;-84
2022/12/27 18:13:43;;;;;;;7.05;3.25;;;;;;;6.45;100.00;100795.19;12206113;19;20330;-84
2022/12/27 18:17:48;;;;;;;13.20;3.63;;;;;;;6.44;100.00;100801.72;12184961;19;20520;-83
2022/12/27 18:21:55;;;;;;;8.80;3.97;;;;;;;6.33;100.00;100795.72;12208394;19;20020;-85
2022/12/27 18:26:10;;;;;;;10.55;4.70;;;;;;;6.34;100.00;100802.91;12228354;19;20042;-84
2022/12/27 18:30:16;;;;;;;13.98;4.63;;;;;;;6.38;100.00;100812.41;12191545;19;20484;-83
2022/12/27 18:34:51;;;;;;;10.82;3.90;;;;;;;6.49;100.00;100811.03;12211440;19;20026;-84
2022/12/27 18:38:59;;;;;;;12.98;4.13;;;;;;;6.55;100.00;100803.91;12187470;19;20007;-85
2022/12/27 18:43:14;;;;;;;8.63;3.80;;;;;;;6.56;100.00;100797.38;12206374;19;20105;-84
2022/12/27 18:47:25;;;;;;;9.88;3.90;;;;;;;6.57;100.00;100801.81;12209130;19;20544;-84
2022/12/27 18:51:35;;;;;;;11.27;4.20;;;;;;;6.49;100.00;100794.59;12191956;19;20010;-84
2022/12/27 18:55:56;;;;;;;8.88;3.45;;;;;;;6.43;100.00;100797.31;12209957;19;20002;-86
2022/12/27 19:00:12;;;;;;;11.98;4.40;;;;;;;6.32;100.00;100793.19;12184829;19;20042;-80
2022/12/27 19:04:18;;;;;;;9.73;4.45;;;;;;;6.18;100.00;100786.75;12178716;19;20007;-83
2022/12/27 19:08:23;;;;;;;12.82;4.93;;;;;;;6.11;100.00;100775.75;12210402;19;20039;-83
2022/12/27 19:12:35;;;;;;;9.57;4.30;;;;;;;6.00;100.00;100764.50;12194699;19;20039;-83
2022/12/27 19:16:37;;;;;;;10.77;4.17;;;;;;;5.84;100.00;100758.22;12213595;19;20368;-83
2022/12/27 19:20:40;;;;;;;10.83;4.10;;;;;;;5.62;100.00;100751.03;12181491;19;20444;-83
2022/12/27 19:24:43;;;;;;;9.77;3.95;;;;;;;5.41;100.00;100744.53;12203503;19;20027;-83
2022/12/27 19:28:57;;;;;;;10.75;4.65;;;;;;;5.20;100.00;100741.75;12204425;19;20007;-84
2022/12/27 19:33:06;;;;;;;12.38;5.40;;;;;;;5.01;100.00;100735.84;12186685;19;20373;-84
2022/12/27 19:37:09;;;;;;;11.63;5.20;;;;;;;4.88;100.00;100743.03;12203708;19;20412;-85
2022/12/27 19:41:13;;;;;;;15.32;4.43;;;;;;;4.78;100.00;100756.97;12207882;19;20023;-84
2022/12/27 19:45:18;;;;;;;10.13;3.67;;;;;;;4.69;100.00;100745.31;12189935;19;20002;-85
2022/12/27 19:49:22;;;;;;;5.68;3.47;;;;;;;4.64;100.00;100734.13;12214167;19;20468;-83
2022/12/27 19:53:50;;;;;;;8.65;3.60;;;;;;;4.63;100.00;100720.66;12193345;19;20006;-85
2022/12/27 19:57:58;;;;;;;9.82;3.95;;;;;;;4.62;100.00;100717.06;12262986;19;20812;-84
2022/12/27 20:02:00;;;;;;;7.65;3.67;;;;;;;4.67;100.00;100708.31;12258806;19;20031;-85
2022/12/27 20:06:03;;;;;;;9.77;3.80;;;;;;;4.67;100.00;100700.97;12206304;19;20003;-86
2022/12/27 20:10:20;;;;;;;11.55;3.78;;;;;;;4.65;100.00;100702.22;12216031;19;20007;-86
2022/12/27 20:14:22;;;;;;;10.40;4.05;;;;;;;4.63;100.00;100696.91;12233428;19;20002;-87
2022/12/27 20:18:25;;;;;;;12.98;4.93;;;;;;;4.60;100.00;100700.03;12204763;19;20143;-85
2022/12/27 20:22:26;;;;;;;9.97;4.23;;;;;;;4.54;100.00;100689.88;12215524;19;20068;-86
2022/12/27 20:26:29;;;;;;;10.48;4.32;;;;;;;4.50;100.00;100689.41;12205525;19;20038;-86
2022/12/27 20:30:32;;;;;;;9.75;3.47;;;;;;;4.46;100.00;100693.56;12192537;19;20070;-86
2022/12/27 20:34:34;;;;;;;10.73;4.40;;;;;;;4.42;100.00;100685.91;12214915;19;20081;-86
2022/12/27 20:38:39;;;;;;;7.57;3.70;;;;;;;4.43;100.00;100674.84;12210621;19;19999;-87
2022/12/27 20:42:41;;;;;;;8.35;3.80;;;;;;;4.38;100.00;100669.09;12191947;19;20014;-86
2022/12/27 20:46:45;;;;;;;12.57;5.05;;;;;;;4.33;100.00;100664.19;12213530;19;20006;-86
2022/12/27 20:50:47;;;;;;;7.68;4.05;;;;;;;4.26;100.00;100665.97;12193142;19;20003;-86
2022/12/27 20:54:49;;;;;;;8.23;3.53;;;;;;;4.20;100.00;100661.28;12216856;19;20067;-86
2022/12/27 20:58:50;;;;;;;7.00;3.95;;;;;;;4.16;100.00;100659.09;12209594;19;20027;-86
2022/12/27 21:02:52;;;;;;;12.05;4.13;;;;;;;4.13;100.00;100656.75;12187128;19;20509;-86
2022/12/27 21:06:54;;;;;;;6.97;3.28;;;;;;;4.13;100.00;100645.81;12204695;19;20014;-85
2022/12/27 21:10:55;;;;;;;6.78;3.35;;;;;;;4.08;100.00;100647.25;12212299;19;20003;-84